sensor_id;sensor_type;location;lat;lon;timestamp;pressure;altitude;pressure_sealevel;temperature;humidity
5703;BME280;2876;51.738;10.050;2023-06-19T00:03:31;98891.28;;;21.13;60.38
5703;BME280;2876;51.738;10.050;2023-06-19T00:09:33;98893.88;;;20.79;61.81
5703;BME280;2876;51.738;10.050;2023-06-19T00:15:35;98872.63;;;20.71;62.80
5703;BME280;2876;51.738;10.050;2023-06-19T00:21:37;98862.22;;;20.83;62.48
5703;BME280;2876;51.738;10.050;2023-06-19T00:27:39;98848.84;;;20.92;60.47
5703;BME280;2876;51.738;10.050;2023-06-19T00:33:43;98841.06;;;21.19;58.40
5703;BME280;2876;51.738;10.050;2023-06-19T00:39:45;98845.47;;;21.10;58.89
5703;BME280;2876;51.738;10.050;2023-06-19T00:45:47;98840.56;;;21.07;59.04
5703;BME280;2876;51.738;10.050;2023-06-19T00:51:50;98840.09;;;21.00;58.36
5703;BME280;2876;51.738;10.050;2023-06-19T00:57:52;98847.91;;;21.17;58.42
5703;BME280;2876;51.738;10.050;2023-06-19T01:03:54;98832.38;;;21.12;59.21
5703;BME280;2876;51.738;10.050;2023-06-19T01:10:02;98821.91;;;21.29;56.22
5703;BME280;2876;51.738;10.050;2023-06-19T01:16:07;98817.28;;;21.25;57.29
5703;BME280;2876;51.738;10.050;2023-06-19T01:22:09;98816.44;;;21.29;56.35
5703;BME280;2876;51.738;10.050;2023-06-19T01:28:12;98807.81;;;21.17;57.94
5703;BME280;2876;51.738;10.050;2023-06-19T01:34:17;98814.16;;;21.08;59.72
5703;BME280;2876;51.738;10.050;2023-06-19T01:40:23;98828.78;;;21.22;60.17
5703;BME280;2876;51.738;10.050;2023-06-19T01:46:29;98835.19;;;20.97;61.54
5703;BME280;2876;51.738;10.050;2023-06-19T01:52:31;98849.69;;;20.82;62.58
5703;BME280;2876;51.738;10.050;2023-06-19T01:58:33;98855.44;;;20.81;62.84
5703;BME280;2876;51.738;10.050;2023-06-19T02:04:35;98871.56;;;20.62;63.20
5703;BME280;2876;51.738;10.050;2023-06-19T02:10:37;98856.03;;;20.57;64.22
5703;BME280;2876;51.738;10.050;2023-06-19T02:16:39;98860.13;;;20.44;65.59
5703;BME280;2876;51.738;10.050;2023-06-19T02:22:45;98840.53;;;20.32;66.53
5703;BME280;2876;51.738;10.050;2023-06-19T02:28:47;98829.94;;;20.20;66.88
5703;BME280;2876;51.738;10.050;2023-06-19T02:34:49;98817.94;;;20.26;65.29
5703;BME280;2876;51.738;10.050;2023-06-19T02:40:51;98809.22;;;20.40;61.76
5703;BME280;2876;51.738;10.050;2023-06-19T02:46:53;98800.72;;;20.51;61.30
5703;BME280;2876;51.738;10.050;2023-06-19T02:52:54;98785.44;;;20.61;60.70
5703;BME280;2876;51.738;10.050;2023-06-19T02:58:56;98782.88;;;20.85;59.38
5703;BME280;2876;51.738;10.050;2023-06-19T03:04:58;98784.44;;;21.01;59.61
5703;BME280;2876;51.738;10.050;2023-06-19T03:11:00;98805.56;;;21.24;58.27
5703;BME280;2876;51.738;10.050;2023-06-19T03:17:06;98805.25;;;20.87;61.38
5703;BME280;2876;51.738;10.050;2023-06-19T03:23:08;98807.22;;;20.76;61.81
5703;BME280;2876;51.738;10.050;2023-06-19T03:29:09;98808.00;;;20.76;62.54
5703;BME280;2876;51.738;10.050;2023-06-19T03:35:11;98805.31;;;20.66;63.27
5703;BME280;2876;51.738;10.050;2023-06-19T03:41:13;98803.16;;;20.63;63.10
5703;BME280;2876;51.738;10.050;2023-06-19T03:47:15;98810.16;;;20.80;62.09
5703;BME280;2876;51.738;10.050;2023-06-19T03:53:18;98817.66;;;21.13;60.73
5703;BME280;2876;51.738;10.050;2023-06-19T03:59:20;98815.00;;;21.03;62.84
5703;BME280;2876;51.738;10.050;2023-06-19T04:05:22;98825.94;;;20.88;62.88
5703;BME280;2876;51.738;10.050;2023-06-19T04:11:24;98837.41;;;20.90;63.29
5703;BME280;2876;51.738;10.050;2023-06-19T04:17:26;98824.91;;;20.73;64.71
5703;BME280;2876;51.738;10.050;2023-06-19T04:23:28;98833.78;;;21.05;62.47
5703;BME280;2876;51.738;10.050;2023-06-19T04:29:30;98839.06;;;20.86;63.29
5703;BME280;2876;51.738;10.050;2023-06-19T04:35:33;98834.44;;;20.81;62.35
5703;BME280;2876;51.738;10.050;2023-06-19T04:41:45;98825.38;;;20.96;63.14
5703;BME280;2876;51.738;10.050;2023-06-19T04:47:47;98832.03;;;20.69;64.37
5703;BME280;2876;51.738;10.050;2023-06-19T04:53:55;98844.59;;;20.60;64.75
5703;BME280;2876;51.738;10.050;2023-06-19T04:59:56;98834.25;;;20.62;64.69
5703;BME280;2876;51.738;10.050;2023-06-19T05:05:59;98841.56;;;20.62;65.34
5703;BME280;2876;51.738;10.050;2023-06-19T05:12:01;98832.53;;;20.82;64.38
5703;BME280;2876;51.738;10.050;2023-06-19T05:18:03;98838.16;;;21.00;64.59
5703;BME280;2876;51.738;10.050;2023-06-19T05:24:06;98843.22;;;21.33;64.50
5703;BME280;2876;51.738;10.050;2023-06-19T05:30:09;98845.13;;;21.32;64.39
5703;BME280;2876;51.738;10.050;2023-06-19T05:36:12;98839.25;;;21.54;63.06
5703;BME280;2876;51.738;10.050;2023-06-19T05:42:14;98848.81;;;21.51;64.53
5703;BME280;2876;51.738;10.050;2023-06-19T05:48:16;98854.28;;;21.91;62.26
5703;BME280;2876;51.738;10.050;2023-06-19T05:54:17;98861.88;;;21.60;64.48
5703;BME280;2876;51.738;10.050;2023-06-19T06:00:20;98864.34;;;21.56;61.93
5703;BME280;2876;51.738;10.050;2023-06-19T06:06:23;98870.91;;;21.55;63.85
5703;BME280;2876;51.738;10.050;2023-06-19T06:12:25;98882.03;;;21.64;64.90
5703;BME280;2876;51.738;10.050;2023-06-19T06:18:27;98916.78;;;21.92;62.10
5703;BME280;2876;51.738;10.050;2023-06-19T06:24:29;98936.97;;;21.96;63.70
5703;BME280;2876;51.738;10.050;2023-06-19T06:30:31;98930.66;;;22.01;62.98
5703;BME280;2876;51.738;10.050;2023-06-19T06:36:33;98928.41;;;22.13;62.67
5703;BME280;2876;51.738;10.050;2023-06-19T06:42:40;98926.75;;;22.75;62.99
5703;BME280;2876;51.738;10.050;2023-06-19T06:48:42;98937.31;;;23.35;59.35
5703;BME280;2876;51.738;10.050;2023-06-19T06:54:44;98937.34;;;23.54;60.73
5703;BME280;2876;51.738;10.050;2023-06-19T07:00:46;98936.19;;;23.79;58.93
5703;BME280;2876;51.738;10.050;2023-06-19T07:06:49;98924.41;;;23.97;57.36
5703;BME280;2876;51.738;10.050;2023-06-19T07:12:51;98932.13;;;23.95;57.68
5703;BME280;2876;51.738;10.050;2023-06-19T07:18:53;98936.50;;;24.48;54.80
5703;BME280;2876;51.738;10.050;2023-06-19T07:24:55;98937.06;;;24.77;54.65
5703;BME280;2876;51.738;10.050;2023-06-19T07:30:57;98945.47;;;25.14;52.19
5703;BME280;2876;51.738;10.050;2023-06-19T07:36:59;98938.16;;;25.09;52.69
5703;BME280;2876;51.738;10.050;2023-06-19T07:43:01;98930.13;;;25.26;53.13
5703;BME280;2876;51.738;10.050;2023-06-19T07:49:03;98941.22;;;25.85;53.31
5703;BME280;2876;51.738;10.050;2023-06-19T07:55:05;98943.56;;;26.90;50.34
5703;BME280;2876;51.738;10.050;2023-06-19T08:01:07;98941.94;;;27.29;52.36
5703;BME280;2876;51.738;10.050;2023-06-19T08:07:09;98940.63;;;27.92;50.04
5703;BME280;2876;51.738;10.050;2023-06-19T08:13:11;98940.44;;;28.32;48.06
5703;BME280;2876;51.738;10.050;2023-06-19T08:19:13;98950.38;;;28.42;47.92
5703;BME280;2876;51.738;10.050;2023-06-19T08:25:15;98940.66;;;29.00;46.68
5703;BME280;2876;51.738;10.050;2023-06-19T08:31:17;98961.56;;;29.48;46.48
5703;BME280;2876;51.738;10.050;2023-06-19T08:37:19;98960.00;;;29.68;43.75
5703;BME280;2876;51.738;10.050;2023-06-19T08:43:21;98955.09;;;29.94;43.62
5703;BME280;2876;51.738;10.050;2023-06-19T08:49:23;98949.25;;;30.17;44.51
5703;BME280;2876;51.738;10.050;2023-06-19T08:55:26;98965.94;;;30.74;42.97
5703;BME280;2876;51.738;10.050;2023-06-19T09:01:28;98962.53;;;30.56;43.61
5703;BME280;2876;51.738;10.050;2023-06-19T09:07:29;98962.44;;;30.98;43.51
5703;BME280;2876;51.738;10.050;2023-06-19T09:13:32;98955.13;;;30.81;42.34
5703;BME280;2876;51.738;10.050;2023-06-19T09:19:34;98964.44;;;31.35;42.04
5703;BME280;2876;51.738;10.050;2023-06-19T09:25:52;98967.22;;;31.35;38.42
5703;BME280;2876;51.738;10.050;2023-06-19T09:31:54;98960.63;;;31.39;38.72
5703;BME280;2876;51.738;10.050;2023-06-19T09:37:58;98951.66;;;32.35;37.55
5703;BME280;2876;51.738;10.050;2023-06-19T09:44:02;98951.66;;;32.79;37.69
5703;BME280;2876;51.738;10.050;2023-06-19T09:50:15;98962.72;;;33.39;37.26
5703;BME280;2876;51.738;10.050;2023-06-19T09:56:18;98978.09;;;34.57;36.12
5703;BME280;2876;51.738;10.050;2023-06-19T10:02:26;98971.53;;;34.11;34.48
5703;BME280;2876;51.738;10.050;2023-06-19T10:08:40;98967.00;;;34.42;34.82
5703;BME280;2876;51.738;10.050;2023-06-19T10:14:47;98949.94;;;34.63;34.87
5703;BME280;2876;51.738;10.050;2023-06-19T10:20:50;98956.84;;;33.75;36.48
5703;BME280;2876;51.738;10.050;2023-06-19T10:26:58;98948.59;;;32.68;37.88
5703;BME280;2876;51.738;10.050;2023-06-19T10:33:01;98960.03;;;32.51;39.77
5703;BME280;2876;51.738;10.050;2023-06-19T10:39:06;98967.31;;;32.15;40.97
5703;BME280;2876;51.738;10.050;2023-06-19T10:45:12;98960.31;;;33.21;38.77
5703;BME280;2876;51.738;10.050;2023-06-19T10:51:19;98947.69;;;33.08;40.34
5703;BME280;2876;51.738;10.050;2023-06-19T10:57:29;98950.41;;;32.76;39.38
5703;BME280;2876;51.738;10.050;2023-06-19T11:03:32;98955.75;;;32.69;40.60
5703;BME280;2876;51.738;10.050;2023-06-19T11:09:34;98943.59;;;32.74;40.20
5703;BME280;2876;51.738;10.050;2023-06-19T11:15:36;98945.13;;;32.71;39.07
5703;BME280;2876;51.738;10.050;2023-06-19T11:21:38;98960.38;;;33.56;38.64
5703;BME280;2876;51.738;10.050;2023-06-19T11:27:40;98950.00;;;34.27;37.62
5703;BME280;2876;51.738;10.050;2023-06-19T11:33:42;98948.75;;;34.44;38.50
5703;BME280;2876;51.738;10.050;2023-06-19T11:39:46;98955.06;;;35.03;38.71
5703;BME280;2876;51.738;10.050;2023-06-19T11:45:48;98956.38;;;35.36;36.52
5703;BME280;2876;51.738;10.050;2023-06-19T11:51:51;98964.28;;;36.10;35.05
5703;BME280;2876;51.738;10.050;2023-06-19T11:57:53;98963.47;;;36.43;35.33
5703;BME280;2876;51.738;10.050;2023-06-19T12:03:55;98954.31;;;37.20;32.14
5703;BME280;2876;51.738;10.050;2023-06-19T12:09:57;98955.50;;;35.81;35.63
5703;BME280;2876;51.738;10.050;2023-06-19T12:16:02;98939.06;;;34.38;38.64
5703;BME280;2876;51.738;10.050;2023-06-19T12:22:05;98936.53;;;33.40;39.86
5703;BME280;2876;51.738;10.050;2023-06-19T12:28:07;98940.28;;;32.68;40.98
5703;BME280;2876;51.738;10.050;2023-06-19T12:34:10;98942.06;;;31.92;43.57
5703;BME280;2876;51.738;10.050;2023-06-19T12:40:30;98937.91;;;32.39;41.84
5703;BME280;2876;51.738;10.050;2023-06-19T12:46:32;98942.84;;;34.07;39.31
5703;BME280;2876;51.738;10.050;2023-06-19T12:52:34;98955.19;;;33.39;40.87
5703;BME280;2876;51.738;10.050;2023-06-19T12:58:36;98953.84;;;33.33;43.19
5703;BME280;2876;51.738;10.050;2023-06-19T13:04:38;98962.38;;;34.92;40.09
5703;BME280;2876;51.738;10.050;2023-06-19T13:10:40;98963.81;;;35.28;39.36
5703;BME280;2876;51.738;10.050;2023-06-19T13:16:43;98957.47;;;36.41;36.63
5703;BME280;2876;51.738;10.050;2023-06-19T13:22:48;98958.22;;;34.40;40.44
5703;BME280;2876;51.738;10.050;2023-06-19T13:28:50;98963.09;;;34.85;38.54
5703;BME280;2876;51.738;10.050;2023-06-19T13:34:52;98960.75;;;33.55;40.79
5703;BME280;2876;51.738;10.050;2023-06-19T13:40:54;98965.06;;;34.62;38.39
5703;BME280;2876;51.738;10.050;2023-06-19T13:46:56;98965.69;;;35.43;37.71
5703;BME280;2876;51.738;10.050;2023-06-19T13:53:01;98970.16;;;36.68;35.25
5703;BME280;2876;51.738;10.050;2023-06-19T13:59:03;98972.84;;;35.67;37.16
5703;BME280;2876;51.738;10.050;2023-06-19T14:05:07;98968.19;;;35.75;37.20
5703;BME280;2876;51.738;10.050;2023-06-19T14:11:09;98964.09;;;35.19;37.22
5703;BME280;2876;51.738;10.050;2023-06-19T14:17:11;98970.97;;;35.25;37.97
5703;BME280;2876;51.738;10.050;2023-06-19T14:23:13;98969.66;;;34.35;39.11
5703;BME280;2876;51.738;10.050;2023-06-19T14:29:15;98965.94;;;34.46;38.57
5703;BME280;2876;51.738;10.050;2023-06-19T14:35:20;98967.75;;;33.49;41.33
5703;BME280;2876;51.738;10.050;2023-06-19T14:41:22;98978.81;;;32.98;42.80
5703;BME280;2876;51.738;10.050;2023-06-19T14:47:24;98983.56;;;32.01;44.51
5703;BME280;2876;51.738;10.050;2023-06-19T14:53:27;98980.63;;;31.45;44.64
5703;BME280;2876;51.738;10.050;2023-06-19T14:59:30;98980.63;;;32.22;45.65
5703;BME280;2876;51.738;10.050;2023-06-19T15:05:32;98985.63;;;33.83;40.35
5703;BME280;2876;51.738;10.050;2023-06-19T15:11:34;98976.41;;;34.95;38.18
5703;BME280;2876;51.738;10.050;2023-06-19T15:17:36;98984.94;;;35.02;37.49
5703;BME280;2876;51.738;10.050;2023-06-19T15:23:39;98980.34;;;35.14;37.34
5703;BME280;2876;51.738;10.050;2023-06-19T15:29:41;98976.22;;;34.85;37.39
5703;BME280;2876;51.738;10.050;2023-06-19T15:35:43;98972.50;;;33.83;38.98
5703;BME280;2876;51.738;10.050;2023-06-19T15:41:45;98968.56;;;33.49;40.02
5703;BME280;2876;51.738;10.050;2023-06-19T15:47:47;98956.72;;;33.52;40.34
5703;BME280;2876;51.738;10.050;2023-06-19T15:53:49;98951.34;;;33.12;40.18
5703;BME280;2876;51.738;10.050;2023-06-19T15:59:51;98962.22;;;32.57;41.27
5703;BME280;2876;51.738;10.050;2023-06-19T16:05:54;98968.56;;;32.58;42.52
5703;BME280;2876;51.738;10.050;2023-06-19T16:11:59;98972.25;;;32.34;42.67
5703;BME280;2876;51.738;10.050;2023-06-19T16:18:01;98969.84;;;31.68;43.73
5703;BME280;2876;51.738;10.050;2023-06-19T16:24:03;98972.03;;;31.74;44.78
5703;BME280;2876;51.738;10.050;2023-06-19T16:30:06;98971.63;;;33.44;41.27
5703;BME280;2876;51.738;10.050;2023-06-19T16:36:08;98971.34;;;34.39;39.34
5703;BME280;2876;51.738;10.050;2023-06-19T16:42:11;98975.03;;;33.53;39.40
5703;BME280;2876;51.738;10.050;2023-06-19T16:48:13;98979.50;;;34.90;36.75
5703;BME280;2876;51.738;10.050;2023-06-19T16:54:15;98981.06;;;35.11;37.19
5703;BME280;2876;51.738;10.050;2023-06-19T17:00:18;98972.09;;;34.78;36.25
5703;BME280;2876;51.738;10.050;2023-06-19T17:06:20;98980.25;;;35.33;36.60
5703;BME280;2876;51.738;10.050;2023-06-19T17:12:25;98969.84;;;35.79;36.17
5703;BME280;2876;51.738;10.050;2023-06-19T17:18:27;98977.28;;;36.28;34.83
5703;BME280;2876;51.738;10.050;2023-06-19T17:24:30;98977.16;;;36.18;34.91
5703;BME280;2876;51.738;10.050;2023-06-19T17:30:32;98993.91;;;36.18;35.18
5703;BME280;2876;51.738;10.050;2023-06-19T17:36:34;98986.34;;;36.48;35.21
5703;BME280;2876;51.738;10.050;2023-06-19T17:42:36;98995.59;;;36.56;34.65
5703;BME280;2876;51.738;10.050;2023-06-19T17:48:38;98994.38;;;36.23;35.37
5703;BME280;2876;51.738;10.050;2023-06-19T17:54:43;98999.72;;;36.05;36.10
5703;BME280;2876;51.738;10.050;2023-06-19T18:00:50;99000.25;;;35.88;36.42
5703;BME280;2876;51.738;10.050;2023-06-19T18:06:52;99009.91;;;34.56;38.43
5703;BME280;2876;51.738;10.050;2023-06-19T18:12:54;99005.75;;;32.97;40.49
5703;BME280;2876;51.738;10.050;2023-06-19T18:18:56;99016.06;;;31.88;42.97
5703;BME280;2876;51.738;10.050;2023-06-19T18:24:58;99010.84;;;31.25;44.78
5703;BME280;2876;51.738;10.050;2023-06-19T18:31:00;99007.97;;;30.55;46.12
5703;BME280;2876;51.738;10.050;2023-06-19T18:37:02;99004.22;;;30.93;46.29
5703;BME280;2876;51.738;10.050;2023-06-19T18:43:04;99007.66;;;31.36;45.60
5703;BME280;2876;51.738;10.050;2023-06-19T18:49:06;99014.34;;;31.35;43.83
5703;BME280;2876;51.738;10.050;2023-06-19T18:55:08;99025.19;;;29.98;46.68
5703;BME280;2876;51.738;10.050;2023-06-19T19:01:10;99019.00;;;28.69;49.30
5703;BME280;2876;51.738;10.050;2023-06-19T19:07:12;99025.47;;;27.87;52.55
5703;BME280;2876;51.738;10.050;2023-06-19T19:13:14;99018.94;;;27.34;53.90
5703;BME280;2876;51.738;10.050;2023-06-19T19:19:16;99021.50;;;26.68;55.57
5703;BME280;2876;51.738;10.050;2023-06-19T19:25:18;99021.88;;;26.17;57.46
5703;BME280;2876;51.738;10.050;2023-06-19T19:31:20;99033.22;;;25.60;59.10
5703;BME280;2876;51.738;10.050;2023-06-19T19:37:25;99024.38;;;25.22;60.03
5703;BME280;2876;51.738;10.050;2023-06-19T19:43:30;99036.41;;;25.07;59.48
5703;BME280;2876;51.738;10.050;2023-06-19T19:49:32;99029.03;;;25.08;60.17
5703;BME280;2876;51.738;10.050;2023-06-19T19:55:34;99035.34;;;25.08;62.36
5703;BME280;2876;51.738;10.050;2023-06-19T20:01:36;99041.38;;;24.91;64.34
5703;BME280;2876;51.738;10.050;2023-06-19T20:07:38;99055.06;;;24.77;62.75
5703;BME280;2876;51.738;10.050;2023-06-19T20:13:40;99070.94;;;24.80;62.35
5703;BME280;2876;51.738;10.050;2023-06-19T20:19:42;99061.75;;;24.52;63.19
5703;BME280;2876;51.738;10.050;2023-06-19T20:25:44;99077.47;;;24.47;63.83
5703;BME280;2876;51.738;10.050;2023-06-19T20:31:47;99086.94;;;24.36;64.27
5703;BME280;2876;51.738;10.050;2023-06-19T20:37:49;99082.81;;;24.38;64.13
5703;BME280;2876;51.738;10.050;2023-06-19T20:43:51;99073.38;;;24.25;66.12
5703;BME280;2876;51.738;10.050;2023-06-19T20:49:53;99079.59;;;24.12;67.98
5703;BME280;2876;51.738;10.050;2023-06-19T20:55:55;99081.84;;;23.86;68.01
5703;BME280;2876;51.738;10.050;2023-06-19T21:01:57;99083.31;;;23.78;68.95
5703;BME280;2876;51.738;10.050;2023-06-19T21:08:02;99088.69;;;23.60;70.24
5703;BME280;2876;51.738;10.050;2023-06-19T21:14:04;99080.72;;;23.39;71.56
5703;BME280;2876;51.738;10.050;2023-06-19T21:20:06;99091.00;;;23.23;72.24
5703;BME280;2876;51.738;10.050;2023-06-19T21:26:12;99090.09;;;23.04;73.14
5703;BME280;2876;51.738;10.050;2023-06-19T21:32:14;99085.28;;;22.91;73.73
5703;BME280;2876;51.738;10.050;2023-06-19T21:38:16;99082.81;;;22.84;74.36
5703;BME280;2876;51.738;10.050;2023-06-19T21:44:18;99090.09;;;22.65;74.85
5703;BME280;2876;51.738;10.050;2023-06-19T21:50:20;99092.19;;;22.39;76.19
5703;BME280;2876;51.738;10.050;2023-06-19T21:56:22;99075.25;;;22.37;76.64
5703;BME280;2876;51.738;10.050;2023-06-19T22:02:24;99080.75;;;22.32;77.40
5703;BME280;2876;51.738;10.050;2023-06-19T22:08:26;99080.28;;;22.19;77.93
5703;BME280;2876;51.738;10.050;2023-06-19T22:14:34;99088.75;;;22.23;78.11
5703;BME280;2876;51.738;10.050;2023-06-19T22:20:41;99077.59;;;22.14;78.05
5703;BME280;2876;51.738;10.050;2023-06-19T22:26:44;99075.50;;;21.91;79.01
5703;BME280;2876;51.738;10.050;2023-06-19T22:32:46;99063.78;;;21.75;78.96
5703;BME280;2876;51.738;10.050;2023-06-19T22:38:48;99063.63;;;21.46;79.60
5703;BME280;2876;51.738;10.050;2023-06-19T22:44:50;99062.56;;;21.26;80.29
5703;BME280;2876;51.738;10.050;2023-06-19T22:50:52;99048.69;;;21.08;80.23
5703;BME280;2876;51.738;10.050;2023-06-19T22:56:54;99050.59;;;20.97;80.40
5703;BME280;2876;51.738;10.050;2023-06-19T23:02:56;99054.72;;;20.79;80.77
5703;BME280;2876;51.738;10.050;2023-06-19T23:08:58;99046.53;;;20.69;81.05
5703;BME280;2876;51.738;10.050;2023-06-19T23:15:00;99049.53;;;20.57;81.42
5703;BME280;2876;51.738;10.050;2023-06-19T23:21:02;99061.78;;;20.44;81.80
5703;BME280;2876;51.738;10.050;2023-06-19T23:27:04;99075.34;;;20.24;83.49
5703;BME280;2876;51.738;10.050;2023-06-19T23:33:06;99071.81;;;20.23;84.22
5703;BME280;2876;51.738;10.050;2023-06-19T23:39:08;99063.03;;;20.11;84.41
5703;BME280;2876;51.738;10.050;2023-06-19T23:45:12;99061.44;;;20.15;84.80
5703;BME280;2876;51.738;10.050;2023-06-19T23:51:14;99057.25;;;19.87;86.95
5703;BME280;2876;51.738;10.050;2023-06-19T23:57:16;99057.56;;;19.96;86.52
